createdAt,value
2017-12-22T00:00:52.073Z,6.00
2017-12-22T00:03:23.196Z,6.00
2017-12-22T00:05:54.103Z,6.00
2017-12-22T00:08:24.610Z,6.00
2017-12-22T00:10:55.252Z,6.00
2017-12-22T00:13:26.314Z,6.00
2017-12-22T00:15:56.714Z,6.00
2017-12-22T00:18:27.413Z,6.00
2017-12-22T00:20:58.684Z,6.20
2017-12-22T00:23:30.715Z,6.20
2017-12-22T00:26:02.027Z,6.30
2017-12-22T00:28:33.000Z,6.30
2017-12-22T00:31:03.492Z,6.40
2017-12-22T00:33:34.150Z,6.40
2017-12-22T00:36:04.551Z,6.40
2017-12-22T00:38:35.078Z,6.30
2017-12-22T00:41:06.026Z,6.40
2017-12-22T00:43:36.544Z,6.50
2017-12-22T00:46:08.006Z,6.50
2017-12-22T00:48:38.621Z,6.60
2017-12-22T00:51:09.779Z,6.50
2017-12-22T00:53:40.297Z,6.50
2017-12-22T00:56:11.056Z,6.60
2017-12-22T00:58:41.535Z,6.60
2017-12-22T01:01:12.489Z,6.50
2017-12-22T01:03:43.001Z,6.60
2017-12-22T01:06:13.920Z,6.70
2017-12-22T01:08:45.247Z,6.70
2017-12-22T01:11:16.131Z,6.60
2017-12-22T01:13:47.521Z,6.80
2017-12-22T01:16:22.336Z,6.70
2017-12-22T01:19:24.468Z,6.70
2017-12-22T01:21:56.646Z,6.70
2017-12-22T01:24:27.352Z,6.70
2017-12-22T01:26:58.067Z,6.60
2017-12-22T01:29:29.475Z,6.60
2017-12-22T01:32:00.832Z,6.60
2017-12-22T01:34:31.533Z,6.70
2017-12-22T01:37:02.748Z,6.70
2017-12-22T01:39:34.199Z,6.60
2017-12-22T01:42:04.994Z,6.60
2017-12-22T01:44:35.664Z,6.60
2017-12-22T01:47:06.420Z,6.70
2017-12-22T01:49:37.151Z,6.70
2017-12-22T01:52:08.244Z,6.70
2017-12-22T01:54:39.021Z,6.70
2017-12-22T01:57:09.902Z,6.90
2017-12-22T01:59:40.515Z,6.90
2017-12-22T02:02:12.024Z,6.90
2017-12-22T02:04:42.981Z,6.80
2017-12-22T02:07:14.775Z,6.80
2017-12-22T02:09:45.287Z,6.80
2017-12-22T02:12:16.160Z,6.90
2017-12-22T02:14:46.764Z,6.90
2017-12-22T02:17:18.330Z,7.00
2017-12-22T02:19:48.815Z,7.00
2017-12-22T02:22:19.387Z,7.00
2017-12-22T02:24:50.384Z,6.90
2017-12-22T02:27:21.699Z,6.80
2017-12-22T02:29:52.368Z,6.80
2017-12-22T02:32:23.538Z,6.90
2017-12-22T02:34:54.469Z,7.00
2017-12-22T02:37:25.828Z,7.00
2017-12-22T02:39:56.308Z,7.00
2017-12-22T02:42:27.566Z,7.00
2017-12-22T02:44:59.094Z,7.00
2017-12-22T02:47:30.564Z,7.00
2017-12-22T02:50:00.920Z,7.00
2017-12-22T02:52:32.095Z,7.10
2017-12-22T02:55:02.474Z,7.00
2017-12-22T02:57:33.553Z,6.90
2017-12-22T03:00:04.050Z,6.90
2017-12-22T03:02:34.844Z,6.90
2017-12-22T03:05:05.358Z,6.90
2017-12-22T03:07:37.567Z,7.00
2017-12-22T03:10:08.023Z,7.00
2017-12-22T03:12:38.642Z,7.00
2017-12-22T03:15:09.104Z,7.00
2017-12-22T03:17:40.912Z,7.00
2017-12-22T03:20:12.315Z,6.90
2017-12-22T03:22:43.131Z,6.90
2017-12-22T03:25:13.788Z,6.90
2017-12-22T03:27:44.561Z,6.90
2017-12-22T03:30:15.077Z,7.00
2017-12-22T03:32:46.184Z,6.90
2017-12-22T03:35:16.595Z,7.00
2017-12-22T03:37:46.908Z,7.10
2017-12-22T03:40:17.560Z,7.10
2017-12-22T03:42:48.543Z,7.00
2017-12-22T03:45:19.165Z,7.10
2017-12-22T03:47:49.644Z,7.00
2017-12-22T03:50:20.099Z,7.00
2017-12-22T03:52:51.668Z,7.00
2017-12-22T03:55:22.901Z,7.10
2017-12-22T03:57:53.268Z,7.00
2017-12-22T04:00:24.640Z,7.20
2017-12-22T04:02:55.579Z,7.10
2017-12-22T04:05:26.003Z,7.20
2017-12-22T04:07:56.657Z,7.20
2017-12-22T04:10:27.261Z,7.10
2017-12-22T04:12:57.670Z,7.10
2017-12-22T04:15:29.556Z,7.00
2017-12-22T04:18:00.177Z,7.00
2017-12-22T04:20:30.605Z,7.00
2017-12-22T04:23:01.214Z,7.00
2017-12-22T04:25:31.889Z,6.90
2017-12-22T04:28:02.508Z,6.90
2017-12-22T04:30:32.955Z,6.90
2017-12-22T04:33:04.199Z,6.80
2017-12-22T04:35:35.064Z,6.90
2017-12-22T04:38:05.583Z,6.90
2017-12-22T04:40:35.770Z,7.10
2017-12-22T04:43:06.664Z,7.20
2017-12-22T04:45:38.208Z,7.10
2017-12-22T04:48:08.879Z,7.10
2017-12-22T04:50:39.781Z,7.00
2017-12-22T04:53:11.144Z,6.90
2017-12-22T04:55:41.587Z,6.90
2017-12-22T04:58:12.244Z,6.90
2017-12-22T05:00:43.048Z,7.00
2017-12-22T05:03:14.299Z,7.10
2017-12-22T05:05:44.977Z,7.10
2017-12-22T05:08:15.561Z,7.30
2017-12-22T05:13:21.100Z,7.20
2017-12-22T05:15:51.648Z,7.20
2017-12-22T05:18:22.115Z,7.20
2017-12-22T05:20:52.841Z,7.20
2017-12-22T05:23:24.044Z,7.30
2017-12-22T05:25:54.191Z,7.30
2017-12-22T05:28:25.328Z,7.30
2017-12-22T05:30:56.593Z,7.20
2017-12-22T05:33:27.180Z,7.20
2017-12-22T05:35:57.654Z,7.20
2017-12-22T05:38:27.819Z,7.20
2017-12-22T05:40:58.986Z,7.10
2017-12-22T05:43:29.671Z,7.00
2017-12-22T05:46:02.485Z,7.00
2017-12-22T05:48:41.861Z,7.00
2017-12-22T05:51:12.969Z,7.00
2017-12-22T05:53:43.180Z,7.00
2017-12-22T05:56:14.604Z,7.10
2017-12-22T05:58:44.774Z,7.10
2017-12-22T06:01:21.673Z,7.10
2017-12-22T06:03:53.089Z,7.20
2017-12-22T06:06:23.533Z,7.30
2017-12-22T06:08:53.690Z,7.30
2017-12-22T06:11:24.221Z,7.30
2017-12-22T06:13:55.273Z,7.30
2017-12-22T06:16:26.400Z,7.30
2017-12-22T06:18:56.758Z,7.30
2017-12-22T06:21:27.703Z,7.30
2017-12-22T06:23:58.486Z,7.20
2017-12-22T06:26:29.189Z,7.30
2017-12-22T06:29:01.678Z,7.20
2017-12-22T06:31:33.217Z,7.30
2017-12-22T06:34:04.041Z,7.20
2017-12-22T06:36:34.672Z,7.30
2017-12-22T06:39:05.844Z,7.30
2017-12-22T06:41:36.264Z,7.30
2017-12-22T06:44:06.791Z,7.40
2017-12-22T06:46:36.984Z,7.30
2017-12-22T06:49:07.317Z,7.30
2017-12-22T06:51:39.043Z,7.30
2017-12-22T06:54:09.529Z,7.20
2017-12-22T06:56:39.884Z,7.20
2017-12-22T06:59:10.488Z,7.20
2017-12-22T07:01:40.923Z,7.20
2017-12-22T07:04:11.341Z,7.20
2017-12-22T07:06:42.866Z,7.30
2017-12-22T07:09:19.231Z,7.30
2017-12-22T07:11:50.694Z,7.30
2017-12-22T07:14:21.401Z,7.40
2017-12-22T07:16:52.010Z,7.30
2017-12-22T07:19:22.592Z,7.30
2017-12-22T07:21:53.303Z,7.40
2017-12-22T07:24:23.539Z,7.40
2017-12-22T07:26:53.918Z,7.50
2017-12-22T07:29:25.294Z,7.20
2017-12-22T07:31:55.676Z,7.20
2017-12-22T07:34:25.977Z,7.20
2017-12-22T07:36:56.343Z,7.20
2017-12-22T07:39:27.476Z,7.30
2017-12-22T07:41:57.787Z,7.30
2017-12-22T07:44:28.458Z,7.30
2017-12-22T07:46:59.767Z,7.30
2017-12-22T07:49:30.160Z,7.30
2017-12-22T07:52:00.568Z,7.40
2017-12-22T07:54:31.387Z,7.30
2017-12-22T07:57:01.564Z,7.30
2017-12-22T07:59:37.319Z,7.30
2017-12-22T08:02:17.857Z,7.40
2017-12-22T08:04:50.334Z,7.40
2017-12-22T08:07:20.797Z,7.40
2017-12-22T08:09:51.589Z,7.50
2017-12-22T08:12:22.067Z,7.50
2017-12-22T08:14:52.826Z,7.40
2017-12-22T08:17:25.151Z,7.40
2017-12-22T08:19:55.664Z,7.40
2017-12-22T08:22:26.173Z,7.50
2017-12-22T08:24:56.431Z,7.50
2017-12-22T08:27:27.035Z,7.60
2017-12-22T08:29:57.673Z,7.60
2017-12-22T08:32:29.082Z,7.60
2017-12-22T08:34:59.470Z,7.50
2017-12-22T08:37:29.844Z,7.60
2017-12-22T08:40:00.436Z,7.60
2017-12-22T08:42:31.936Z,7.50
2017-12-22T08:45:02.256Z,7.50
2017-12-22T08:47:32.800Z,7.50
2017-12-22T08:50:03.893Z,7.40
2017-12-22T08:52:34.342Z,7.50
2017-12-22T08:55:05.115Z,7.50
2017-12-22T08:57:36.783Z,7.50
2017-12-22T09:00:07.421Z,7.60
2017-12-22T09:02:37.784Z,7.60
2017-12-22T09:05:08.302Z,7.60
2017-12-22T09:07:39.719Z,7.60
2017-12-22T09:10:10.099Z,7.60
2017-12-22T09:12:40.580Z,7.60
2017-12-22T09:15:12.035Z,7.60
2017-12-22T09:17:42.389Z,7.50
2017-12-22T09:20:12.745Z,7.60
2017-12-22T09:22:43.044Z,7.50
2017-12-22T09:25:13.406Z,7.50
2017-12-22T09:27:43.876Z,7.50
2017-12-22T09:30:14.567Z,7.50
2017-12-22T09:32:44.977Z,7.50
2017-12-22T09:35:15.227Z,7.50
2017-12-22T09:37:45.553Z,7.60
2017-12-22T09:40:16.028Z,7.60
2017-12-22T09:42:46.353Z,7.70
2017-12-22T09:45:16.990Z,7.60
2017-12-22T09:47:47.264Z,7.60
2017-12-22T09:50:18.418Z,7.70
2017-12-22T09:52:49.554Z,7.70
2017-12-22T09:55:20.568Z,7.70
2017-12-22T09:57:50.876Z,7.70
2017-12-22T10:00:21.100Z,7.70
2017-12-22T10:02:53.871Z,7.70
2017-12-22T10:05:24.793Z,7.70
2017-12-22T10:07:55.517Z,7.80
2017-12-22T10:10:25.696Z,7.80
2017-12-22T10:12:56.072Z,7.80
2017-12-22T10:15:26.370Z,7.80
2017-12-22T10:17:57.317Z,7.90
2017-12-22T10:20:28.536Z,7.90
2017-12-22T10:23:00.389Z,7.90
2017-12-22T10:25:30.961Z,8.00
2017-12-22T10:28:01.229Z,8.00
2017-12-22T10:30:31.565Z,8.00
2017-12-22T10:33:02.064Z,8.00
2017-12-22T10:35:32.437Z,8.00
2017-12-22T10:38:03.583Z,8.00
2017-12-22T10:40:34.643Z,8.00
2017-12-22T10:43:05.019Z,8.00
2017-12-22T10:45:35.622Z,8.00
2017-12-22T10:48:06.085Z,8.00
2017-12-22T10:50:36.656Z,8.10
2017-12-22T10:53:07.018Z,8.10
2017-12-22T10:55:37.436Z,8.20
2017-12-22T10:58:07.954Z,8.10
2017-12-22T11:00:38.459Z,8.00
2017-12-22T11:03:09.528Z,8.00
2017-12-22T11:05:40.186Z,8.00
2017-12-22T11:08:10.719Z,7.90
2017-12-22T11:10:42.008Z,7.90
2017-12-22T11:13:12.998Z,7.90
2017-12-22T11:15:43.603Z,8.00
2017-12-22T11:18:13.998Z,7.90
2017-12-22T11:20:45.604Z,8.00
2017-12-22T11:23:16.891Z,8.00
2017-12-22T11:25:48.773Z,8.00
2017-12-22T11:28:19.237Z,8.00
2017-12-22T11:30:49.709Z,8.10
2017-12-22T11:33:20.127Z,8.10
2017-12-22T11:35:50.731Z,8.20
2017-12-22T11:38:21.787Z,8.30
2017-12-22T11:40:52.183Z,8.20
2017-12-22T11:43:22.694Z,8.30
2017-12-22T11:45:53.648Z,8.20
2017-12-22T11:48:24.471Z,8.20
2017-12-22T11:50:55.022Z,8.20
2017-12-22T11:53:25.767Z,8.20
2017-12-22T11:55:57.740Z,8.30
2017-12-22T11:58:28.180Z,8.40
2017-12-22T12:00:58.792Z,8.30
2017-12-22T12:03:30.164Z,8.30
2017-12-22T12:06:01.524Z,8.30
2017-12-22T12:08:32.072Z,8.30
2017-12-22T12:11:02.712Z,8.30
2017-12-22T12:13:33.163Z,8.40
2017-12-22T12:16:03.648Z,8.40
2017-12-22T12:18:34.458Z,8.40
2017-12-22T12:21:07.031Z,8.50
2017-12-22T12:23:38.197Z,8.50
2017-12-22T12:26:08.645Z,8.50
2017-12-22T12:28:39.167Z,8.50
2017-12-22T12:31:09.566Z,8.50
2017-12-22T12:33:41.852Z,8.50
2017-12-22T12:36:12.409Z,8.50
2017-12-22T12:38:43.490Z,8.40
2017-12-22T12:41:14.280Z,8.40
2017-12-22T12:43:44.728Z,8.40
2017-12-22T12:46:15.147Z,8.40
2017-12-22T12:48:45.639Z,8.40
2017-12-22T12:51:15.952Z,8.30
2017-12-22T12:53:46.303Z,8.30
2017-12-22T12:56:16.949Z,8.30
2017-12-22T12:58:47.460Z,8.30
2017-12-22T13:01:18.114Z,8.40
2017-12-22T13:03:48.931Z,8.50
2017-12-22T13:06:20.430Z,8.50
2017-12-22T13:08:51.204Z,8.60
2017-12-22T13:11:21.943Z,8.40
2017-12-22T13:13:52.277Z,8.40
2017-12-22T13:16:23.504Z,8.40
2017-12-22T13:18:53.912Z,8.30
2017-12-22T13:21:24.339Z,8.40
2017-12-22T13:23:55.226Z,8.30
2017-12-22T13:26:26.748Z,8.40
2017-12-22T13:28:57.867Z,8.30
2017-12-22T13:31:29.459Z,8.30
2017-12-22T13:34:00.006Z,8.30
2017-12-22T13:36:30.241Z,8.20
2017-12-22T13:39:01.374Z,8.20
2017-12-22T13:41:31.776Z,8.10
2017-12-22T13:44:02.026Z,8.10
2017-12-22T13:46:32.411Z,8.10
2017-12-22T13:49:03.064Z,8.10
2017-12-22T13:51:33.432Z,8.10
2017-12-22T13:54:04.862Z,8.10
2017-12-22T13:56:36.179Z,8.00
2017-12-22T13:59:06.715Z,8.00
2017-12-22T14:01:37.134Z,7.90
2017-12-22T14:04:08.045Z,7.90
2017-12-22T14:06:38.731Z,7.90
2017-12-22T14:09:10.051Z,7.80
2017-12-22T14:11:40.738Z,7.80
2017-12-22T14:14:12.151Z,7.70
2017-12-22T14:16:42.824Z,7.80
2017-12-22T14:19:14.074Z,7.70
2017-12-22T14:21:45.971Z,7.70
2017-12-22T14:24:19.573Z,7.70
2017-12-22T14:26:51.391Z,7.60
2017-12-22T14:29:23.398Z,7.60
2017-12-22T14:31:55.193Z,7.60
2017-12-22T14:34:26.578Z,7.60
2017-12-22T14:36:56.906Z,7.60
2017-12-22T14:39:27.260Z,7.60
2017-12-22T14:41:57.737Z,7.60
2017-12-22T14:44:28.225Z,7.60
2017-12-22T14:46:58.847Z,7.60
2017-12-22T14:49:29.280Z,7.50
2017-12-22T14:51:59.724Z,7.50
2017-12-22T14:54:31.801Z,7.40
2017-12-22T14:57:02.390Z,7.40
2017-12-22T14:59:32.848Z,7.40
2017-12-22T15:02:04.235Z,7.30
2017-12-22T15:04:35.051Z,7.30
2017-12-22T15:07:06.497Z,7.10
2017-12-22T15:09:38.233Z,7.10
2017-12-22T15:12:09.601Z,7.10
2017-12-22T15:14:40.547Z,7.10
2017-12-22T15:17:11.169Z,7.10
2017-12-22T15:19:42.532Z,7.00
2017-12-22T15:22:12.941Z,7.00
2017-12-22T15:24:44.123Z,6.90
2017-12-22T15:27:15.118Z,6.90
2017-12-22T15:29:46.151Z,6.80
2017-12-22T15:32:17.434Z,6.90
2017-12-22T15:34:47.814Z,6.90
2017-12-22T15:37:19.888Z,6.90
2017-12-22T15:39:50.497Z,6.90
2017-12-22T15:42:21.121Z,6.90
2017-12-22T15:44:51.646Z,6.90
2017-12-22T15:47:22.057Z,6.80
2017-12-22T15:49:52.442Z,6.90
2017-12-22T15:52:23.103Z,6.80
2017-12-22T15:54:53.815Z,6.70
2017-12-22T15:57:24.646Z,6.70
2017-12-22T15:59:56.095Z,6.80
2017-12-22T16:02:27.500Z,6.80
2017-12-22T16:04:58.446Z,6.80
2017-12-22T16:07:28.796Z,6.70
2017-12-22T16:10:00.020Z,6.80
2017-12-22T16:12:30.669Z,6.70
2017-12-22T16:15:01.667Z,6.70
2017-12-22T16:17:32.575Z,6.70
2017-12-22T16:20:03.273Z,6.70
2017-12-22T16:22:34.254Z,6.80
2017-12-22T16:25:06.167Z,6.70
2017-12-22T16:27:37.631Z,6.70
2017-12-22T16:30:08.224Z,6.70
2017-12-22T16:32:38.771Z,6.70
2017-12-22T16:35:09.247Z,6.60
2017-12-22T16:37:39.635Z,6.60
2017-12-22T16:40:10.217Z,6.60
2017-12-22T16:42:40.695Z,6.60
2017-12-22T16:45:13.163Z,6.60
2017-12-22T16:47:44.278Z,6.60
2017-12-22T16:50:15.777Z,6.60
2017-12-22T16:52:46.360Z,6.70
2017-12-22T16:55:16.967Z,6.60
2017-12-22T16:57:47.230Z,6.50
2017-12-22T17:00:18.753Z,6.00
2017-12-22T17:02:49.056Z,6.00
2017-12-22T17:05:20.144Z,6.10
2017-12-22T17:07:52.448Z,6.10
2017-12-22T17:10:23.788Z,6.20
2017-12-22T17:12:55.219Z,6.20
2017-12-22T17:15:25.620Z,6.20
2017-12-22T17:17:56.520Z,6.30
2017-12-22T17:20:27.624Z,6.30
2017-12-22T17:22:58.112Z,6.30
2017-12-22T17:25:28.523Z,6.30
2017-12-22T17:27:59.672Z,6.20
2017-12-22T17:30:29.876Z,6.30
2017-12-22T17:33:00.135Z,6.30
2017-12-22T17:35:30.715Z,6.10
2017-12-22T17:38:01.868Z,6.10
2017-12-22T17:40:32.335Z,6.10
2017-12-22T17:43:02.824Z,6.10
2017-12-22T17:45:33.026Z,6.00
2017-12-22T17:48:03.453Z,6.00
2017-12-22T17:50:34.123Z,6.10
2017-12-22T17:53:04.738Z,6.10
2017-12-22T17:55:34.990Z,6.10
2017-12-22T17:58:05.534Z,6.10
2017-12-22T18:00:35.905Z,6.10
2017-12-22T18:03:06.273Z,6.10
2017-12-22T18:05:37.725Z,6.10
2017-12-22T18:08:08.173Z,6.00
2017-12-22T18:10:39.436Z,5.90
2017-12-22T18:13:11.155Z,5.80
2017-12-22T18:15:42.938Z,5.90
2017-12-22T18:18:14.308Z,5.70
2017-12-22T18:20:45.593Z,5.60
2017-12-22T18:23:17.957Z,5.30
2017-12-22T18:25:48.816Z,5.30
2017-12-22T18:28:21.679Z,5.30
2017-12-22T18:30:53.166Z,5.20
2017-12-22T18:33:23.800Z,5.30
2017-12-22T18:35:54.687Z,5.40
2017-12-22T18:38:25.137Z,5.50
2017-12-22T18:40:55.637Z,5.60
2017-12-22T18:43:26.167Z,5.70
2017-12-22T18:45:56.855Z,5.80
2017-12-22T18:48:27.309Z,5.80
2017-12-22T18:50:58.233Z,5.70
2017-12-22T18:53:29.030Z,5.60
2017-12-22T18:56:00.252Z,5.60
2017-12-22T18:58:30.677Z,5.70
2017-12-22T19:01:01.080Z,5.80
2017-12-22T19:03:32.446Z,5.40
2017-12-22T19:06:03.405Z,5.40
2017-12-22T19:08:34.353Z,5.30
2017-12-22T19:11:05.020Z,5.40
2017-12-22T19:13:35.448Z,5.50
2017-12-22T19:16:07.203Z,5.60
2017-12-22T19:18:37.604Z,5.60
2017-12-22T19:21:08.443Z,5.60
2017-12-22T19:23:39.395Z,5.60
2017-12-22T19:26:09.972Z,5.50
2017-12-22T19:28:40.231Z,5.50
2017-12-22T19:31:10.406Z,5.60
2017-12-22T19:33:40.783Z,5.60
2017-12-22T19:36:11.120Z,5.50
2017-12-22T19:38:41.556Z,5.30
2017-12-22T19:41:13.078Z,5.10
2017-12-22T19:43:43.419Z,5.10
2017-12-22T19:46:13.641Z,5.20
2017-12-22T19:48:44.121Z,5.20
2017-12-22T19:51:14.826Z,5.10
2017-12-22T19:53:45.387Z,5.20
2017-12-22T19:56:15.979Z,5.40
2017-12-22T19:58:47.280Z,5.20
2017-12-22T20:01:17.990Z,5.20
2017-12-22T20:03:49.027Z,5.00
2017-12-22T20:06:19.335Z,4.90
2017-12-22T20:08:49.840Z,4.90
2017-12-22T20:11:20.135Z,4.90
2017-12-22T20:13:50.615Z,4.80
2017-12-22T20:16:21.138Z,4.80
2017-12-22T20:18:51.437Z,4.80
2017-12-22T20:21:21.804Z,4.80
2017-12-22T20:23:52.492Z,4.80
2017-12-22T20:26:23.377Z,4.90
2017-12-22T20:28:54.380Z,5.00
2017-12-22T20:31:25.753Z,5.20
2017-12-22T20:33:56.108Z,5.20
2017-12-22T20:36:26.991Z,5.10
2017-12-22T20:38:57.305Z,5.00
2017-12-22T20:41:27.504Z,5.20
2017-12-22T20:43:57.839Z,5.10
2017-12-22T20:46:28.603Z,5.00
2017-12-22T20:49:00.667Z,5.00
2017-12-22T20:51:32.122Z,4.80
2017-12-22T20:54:02.724Z,4.80
2017-12-22T20:56:33.378Z,4.80
2017-12-22T20:59:03.946Z,4.90
2017-12-22T21:01:34.230Z,4.90
2017-12-22T21:04:05.305Z,4.80
2017-12-22T21:06:35.831Z,4.80
2017-12-22T21:09:06.445Z,4.80
2017-12-22T21:11:37.531Z,4.80
2017-12-22T21:14:08.114Z,4.80
2017-12-22T21:16:39.260Z,4.80
2017-12-22T21:19:09.693Z,4.80
2017-12-22T21:21:40.885Z,4.90
2017-12-22T21:24:12.904Z,4.80
2017-12-22T21:26:43.631Z,4.80
2017-12-22T21:29:15.004Z,5.10
2017-12-22T21:31:45.483Z,5.00
2017-12-22T21:34:16.683Z,5.20
2017-12-22T21:36:47.324Z,5.10
2017-12-22T21:39:17.741Z,5.20
2017-12-22T21:41:48.096Z,5.10
2017-12-22T21:44:18.921Z,5.20
2017-12-22T21:46:51.194Z,5.20
2017-12-22T21:49:22.087Z,5.20
2017-12-22T21:51:52.532Z,5.10
2017-12-22T21:54:23.186Z,5.30
2017-12-22T21:56:53.690Z,5.30
2017-12-22T21:59:24.184Z,5.40
2017-12-22T22:01:54.730Z,5.30
2017-12-22T22:04:25.814Z,5.10
2017-12-22T22:06:56.217Z,5.10
2017-12-22T22:09:26.837Z,5.00
2017-12-22T22:11:59.093Z,4.80
2017-12-22T22:14:29.410Z,4.70
2017-12-22T22:16:59.871Z,4.60
2017-12-22T22:19:30.660Z,4.80
2017-12-22T22:22:01.139Z,4.80
2017-12-22T22:24:31.818Z,4.70
2017-12-22T22:27:02.835Z,4.60
2017-12-22T22:29:33.255Z,4.70
2017-12-22T22:32:03.726Z,4.70
2017-12-22T22:34:34.247Z,4.80
2017-12-22T22:37:04.703Z,4.80
2017-12-22T22:39:34.914Z,4.90
2017-12-22T22:42:05.339Z,4.90
2017-12-22T22:44:35.701Z,5.00
2017-12-22T22:47:06.818Z,5.20
2017-12-22T22:49:37.748Z,5.20
2017-12-22T22:52:08.219Z,5.10
2017-12-22T22:54:39.380Z,4.80
2017-12-22T22:57:10.492Z,4.80
2017-12-22T22:59:41.244Z,4.80
2017-12-22T23:02:12.421Z,4.80
2017-12-22T23:04:42.689Z,4.80
2017-12-22T23:07:13.387Z,4.70
2017-12-22T23:09:43.705Z,4.70
2017-12-22T23:12:14.039Z,4.70
2017-12-22T23:14:44.858Z,4.70
2017-12-22T23:17:15.499Z,4.70
2017-12-22T23:19:46.091Z,4.70
2017-12-22T23:22:16.458Z,4.70
2017-12-22T23:24:46.807Z,4.70
2017-12-22T23:27:17.659Z,4.70
2017-12-22T23:29:47.975Z,4.80
2017-12-22T23:32:19.918Z,4.80
2017-12-22T23:34:50.732Z,4.80
2017-12-22T23:37:21.339Z,4.80
2017-12-22T23:39:51.589Z,4.80
2017-12-22T23:42:22.100Z,4.80
2017-12-22T23:44:52.887Z,4.80
2017-12-22T23:47:23.194Z,4.80
2017-12-22T23:49:53.551Z,4.80
2017-12-22T23:52:23.872Z,4.80
2017-12-22T23:54:55.381Z,4.80
2017-12-22T23:57:25.881Z,4.80
2017-12-22T23:59:56.287Z,4.90
